ANZ7629 NZOH-NZCH
Flight info
| Callsign | ANZ7629 |
|---|---|
| Flight time | 0h 51m |
| Altitude | 34000 |
| Route | ABTOL Y226 GURBO Y804 ATBUB H159 MESIX |
| Aircraft | A320/M-SDE3FGHIRWY/LB1 |
Departure
| Time | 2026-04-17 03:15 |
|---|---|
| Airport | RNZAF Base Ohakea (NZOH) |
Arrival
| Time | 2026-04-17 04:07 |
|---|---|
| Airport | Christchurch International Airport (NZCH) |
| Time | Latitude | Longitude | Altitude | Speed | Heading |
|---|---|---|---|---|---|
| 2026-04-17 02:44 | -40.19955 | 175.38176 | 165 ft | 0 kts | 321° |
| 2026-04-17 02:44 | -40.19953 | 175.38174 | 165 ft | 0 kts | 321° |
| 2026-04-17 03:00 | -40.19962 | 175.38184 | 165 ft | 4 kts | 321° |
| 2026-04-17 03:00 | -40.19982 | 175.38204 | 165 ft | 4 kts | 334° |
| 2026-04-17 03:00 | -40.20005 | 175.38210 | 164 ft | 4 kts | 24° |
| 2026-04-17 03:01 | -40.20018 | 175.38197 | 164 ft | 1 kts | 58° |
| 2026-04-17 03:01 | -40.20020 | 175.38194 | 163 ft | 1 kts | 58° |
| 2026-04-17 03:09 | -40.20020 | 175.38195 | 163 ft | 0 kts | 58° |
| 2026-04-17 03:09 | -40.20018 | 175.38199 | 164 ft | 3 kts | 58° |
| 2026-04-17 03:09 | -40.19982 | 175.38269 | 167 ft | 15 kts | 55° |
| 2026-04-17 03:09 | -40.19947 | 175.38399 | 172 ft | 15 kts | 79° |
| 2026-04-17 03:10 | -40.19928 | 175.38524 | 175 ft | 14 kts | 78° |
| 2026-04-17 03:10 | -40.19908 | 175.38656 | 175 ft | 15 kts | 82° |
| 2026-04-17 03:10 | -40.19948 | 175.38798 | 171 ft | 19 kts | 140° |
| 2026-04-17 03:10 | -40.20088 | 175.38846 | 168 ft | 22 kts | 169° |
| 2026-04-17 03:11 | -40.20252 | 175.38886 | 164 ft | 26 kts | 169° |
| 2026-04-17 03:11 | -40.20437 | 175.38933 | 161 ft | 29 kts | 169° |
| 2026-04-17 03:11 | -40.20542 | 175.39135 | 160 ft | 29 kts | 108° |
| 2026-04-17 03:11 | -40.20522 | 175.39277 | 159 ft | 15 kts | 333° |
| 2026-04-17 03:12 | -40.20561 | 175.39205 | 159 ft | 13 kts | 155° |
| 2026-04-17 03:12 | -40.20597 | 175.39312 | 159 ft | 14 kts | 110° |
| 2026-04-17 03:12 | -40.20628 | 175.39446 | 159 ft | 16 kts | 108° |
| 2026-04-17 03:12 | -40.20666 | 175.39597 | 158 ft | 18 kts | 108° |
| 2026-04-17 03:13 | -40.20709 | 175.39765 | 158 ft | 21 kts | 108° |
| 2026-04-17 03:13 | -40.20755 | 175.39950 | 157 ft | 22 kts | 108° |
| 2026-04-17 03:13 | -40.20849 | 175.39995 | 156 ft | 17 kts | 204° |
| 2026-04-17 03:13 | -40.20916 | 175.39918 | 155 ft | 12 kts | 270° |
| 2026-04-17 03:14 | -40.20898 | 175.39840 | 155 ft | 0 kts | 289° |
| 2026-04-17 03:14 | -40.20889 | 175.39805 | 155 ft | 22 kts | 289° |
| 2026-04-17 03:15 | -40.20761 | 175.39319 | 160 ft | 86 kts | 289° |
| 2026-04-17 03:15 | -40.20516 | 175.38385 | 163 ft | 133 kts | 289° |
| 2026-04-17 03:15 | -40.20200 | 175.37168 | 528 ft | 145 kts | 290° |
| 2026-04-17 03:15 | -40.19878 | 175.35928 | 1169 ft | 144 kts | 288° |
| 2026-04-17 03:16 | -40.19551 | 175.34695 | 1834 ft | 143 kts | 291° |
| 2026-04-17 03:16 | -40.19210 | 175.33417 | 2167 ft | 158 kts | 290° |
| 2026-04-17 03:16 | -40.18818 | 175.31955 | 2406 ft | 182 kts | 290° |
| 2026-04-17 03:16 | -40.18383 | 175.30327 | 2926 ft | 193 kts | 290° |
| 2026-04-17 03:17 | -40.17941 | 175.28664 | 3733 ft | 194 kts | 290° |
| 2026-04-17 03:17 | -40.17498 | 175.26992 | 4533 ft | 196 kts | 290° |
| 2026-04-17 03:17 | -40.17044 | 175.25282 | 4916 ft | 200 kts | 289° |
| 2026-04-17 03:17 | -40.16940 | 175.23501 | 5000 ft | 203 kts | 256° |
| 2026-04-17 03:18 | -40.17846 | 175.22048 | 5008 ft | 221 kts | 214° |
| 2026-04-17 03:18 | -40.19402 | 175.21737 | 5011 ft | 240 kts | 172° |
| 2026-04-17 03:18 | -40.20944 | 175.22693 | 5011 ft | 252 kts | 148° |
| 2026-04-17 03:18 | -40.22418 | 175.23909 | 5001 ft | 247 kts | 165° |
| 2026-04-17 03:19 | -40.24063 | 175.24239 | 5016 ft | 236 kts | 191° |
| 2026-04-17 03:19 | -40.25700 | 175.24090 | 5012 ft | 235 kts | 191° |
| 2026-04-17 03:19 | -40.27329 | 175.23939 | 5011 ft | 235 kts | 191° |
| 2026-04-17 03:19 | -40.28964 | 175.23786 | 5011 ft | 236 kts | 192° |
| 2026-04-17 03:20 | -40.30601 | 175.23634 | 5012 ft | 237 kts | 191° |
| 2026-04-17 03:20 | -40.32249 | 175.23577 | 5010 ft | 242 kts | 178° |
| 2026-04-17 03:20 | -40.33867 | 175.24313 | 5014 ft | 255 kts | 151° |
| 2026-04-17 03:20 | -40.35197 | 175.26030 | 5278 ft | 283 kts | 129° |
| 2026-04-17 03:21 | -40.36415 | 175.28103 | 5993 ft | 291 kts | 129° |
| 2026-04-17 03:21 | -40.37666 | 175.30215 | 6792 ft | 295 kts | 130° |
| 2026-04-17 03:21 | -40.38938 | 175.32348 | 7596 ft | 298 kts | 130° |
| 2026-04-17 03:21 | -40.40225 | 175.34503 | 8409 ft | 302 kts | 131° |
| 2026-04-17 03:22 | -40.41525 | 175.36686 | 9208 ft | 305 kts | 131° |
| 2026-04-17 03:22 | -40.42842 | 175.38902 | 9835 ft | 311 kts | 131° |
| 2026-04-17 03:22 | -40.44167 | 175.41136 | 9982 ft | 311 kts | 131° |
| 2026-04-17 03:22 | -40.45494 | 175.43376 | 10013 ft | 310 kts | 131° |
| 2026-04-17 03:23 | -40.46816 | 175.45612 | 10007 ft | 310 kts | 131° |
| 2026-04-17 03:23 | -40.48135 | 175.47846 | 10020 ft | 310 kts | 131° |
| 2026-04-17 03:23 | -40.49456 | 175.50082 | 10012 ft | 310 kts | 131° |
| 2026-04-17 03:23 | -40.50775 | 175.52319 | 10013 ft | 310 kts | 131° |
| 2026-04-17 03:24 | -40.52096 | 175.54557 | 10017 ft | 310 kts | 131° |
| 2026-04-17 03:24 | -40.53396 | 175.56763 | 10015 ft | 309 kts | 130° |
| 2026-04-17 03:24 | -40.54713 | 175.58999 | 10016 ft | 309 kts | 131° |
| 2026-04-17 03:24 | -40.56039 | 175.61213 | 10007 ft | 307 kts | 135° |
| 2026-04-17 03:25 | -40.57682 | 175.62928 | 10013 ft | 299 kts | 159° |
| 2026-04-17 03:25 | -40.59618 | 175.63751 | 10009 ft | 290 kts | 179° |
| 2026-04-17 03:25 | -40.61656 | 175.63634 | 10141 ft | 301 kts | 200° |
| 2026-04-17 03:25 | -40.63651 | 175.62628 | 10317 ft | 317 kts | 211° |
| 2026-04-17 03:26 | -40.65695 | 175.61353 | 10679 ft | 331 kts | 211° |
| 2026-04-17 03:26 | -40.67789 | 175.60038 | 11327 ft | 335 kts | 211° |
| 2026-04-17 03:26 | -40.69899 | 175.58713 | 12030 ft | 337 kts | 211° |
| 2026-04-17 03:26 | -40.71305 | 175.57831 | 12502 ft | 339 kts | 211° |
| 2026-04-17 03:27 | -40.73442 | 175.56492 | 13237 ft | 340 kts | 211° |
| 2026-04-17 03:27 | -40.75585 | 175.55152 | 13921 ft | 342 kts | 211° |
| 2026-04-17 03:27 | -40.77745 | 175.53801 | 14536 ft | 345 kts | 211° |
| 2026-04-17 03:27 | -40.79924 | 175.52433 | 15140 ft | 348 kts | 211° |
| 2026-04-17 03:28 | -40.82117 | 175.51056 | 15707 ft | 351 kts | 211° |
| 2026-04-17 03:28 | -40.84327 | 175.49667 | 16306 ft | 353 kts | 211° |
| 2026-04-17 03:28 | -40.86558 | 175.48265 | 16884 ft | 357 kts | 211° |
| 2026-04-17 03:28 | -40.88809 | 175.46849 | 17484 ft | 360 kts | 211° |
| 2026-04-17 03:29 | -40.91078 | 175.45423 | 18079 ft | 363 kts | 211° |
| 2026-04-17 03:29 | -40.93372 | 175.43984 | 18633 ft | 366 kts | 211° |
| 2026-04-17 03:29 | -40.95679 | 175.42531 | 19159 ft | 369 kts | 211° |
| 2026-04-17 03:29 | -40.98004 | 175.41068 | 19725 ft | 371 kts | 210° |
| 2026-04-17 03:30 | -41.00343 | 175.39595 | 20315 ft | 373 kts | 211° |
| 2026-04-17 03:30 | -41.02589 | 175.37888 | 20858 ft | 371 kts | 219° |
| 2026-04-17 03:30 | -41.04725 | 175.35949 | 21396 ft | 373 kts | 219° |
| 2026-04-17 03:30 | -41.06872 | 175.33995 | 21911 ft | 375 kts | 219° |
| 2026-04-17 03:31 | -41.09028 | 175.32032 | 22416 ft | 378 kts | 218° |
| 2026-04-17 03:31 | -41.11204 | 175.30054 | 22921 ft | 380 kts | 218° |
| 2026-04-17 03:31 | -41.13389 | 175.28069 | 23412 ft | 382 kts | 218° |
| 2026-04-17 03:31 | -41.15590 | 175.26073 | 23826 ft | 384 kts | 218° |
| 2026-04-17 03:32 | -41.17801 | 175.24061 | 24215 ft | 386 kts | 219° |
| 2026-04-17 03:32 | -41.20019 | 175.22036 | 24599 ft | 388 kts | 219° |
| 2026-04-17 03:32 | -41.22248 | 175.19998 | 24965 ft | 390 kts | 219° |
| 2026-04-17 03:32 | -41.24495 | 175.17948 | 25334 ft | 392 kts | 219° |
| 2026-04-17 03:33 | -41.26720 | 175.15917 | 25690 ft | 394 kts | 219° |
| 2026-04-17 03:33 | -41.28985 | 175.13848 | 26041 ft | 396 kts | 219° |
| 2026-04-17 03:33 | -41.31263 | 175.11760 | 26404 ft | 398 kts | 219° |
| 2026-04-17 03:33 | -41.33555 | 175.09660 | 26753 ft | 400 kts | 219° |
| 2026-04-17 03:34 | -41.35851 | 175.07554 | 27102 ft | 403 kts | 219° |
| 2026-04-17 03:34 | -41.38159 | 175.05436 | 27453 ft | 405 kts | 219° |
| 2026-04-17 03:34 | -41.40487 | 175.03299 | 27808 ft | 407 kts | 219° |
| 2026-04-17 03:34 | -41.42822 | 175.01153 | 28146 ft | 409 kts | 219° |
| 2026-04-17 03:35 | -41.45170 | 174.98996 | 28482 ft | 411 kts | 219° |
| 2026-04-17 03:35 | -41.47528 | 174.96828 | 28815 ft | 413 kts | 219° |
| 2026-04-17 03:35 | -41.49905 | 174.94637 | 29254 ft | 412 kts | 219° |
| 2026-04-17 03:35 | -41.52257 | 174.92465 | 29742 ft | 411 kts | 219° |
| 2026-04-17 03:36 | -41.56935 | 174.88141 | 30577 ft | 408 kts | 220° |
| 2026-04-17 03:36 | -41.59266 | 174.85986 | 30993 ft | 407 kts | 220° |
| 2026-04-17 03:36 | -41.61590 | 174.83834 | 31406 ft | 406 kts | 220° |
| 2026-04-17 03:37 | -41.63875 | 174.81716 | 31812 ft | 405 kts | 220° |
| 2026-04-17 03:37 | -41.66189 | 174.79570 | 32239 ft | 404 kts | 221° |
| 2026-04-17 03:37 | -41.68491 | 174.77434 | 32657 ft | 402 kts | 221° |
| 2026-04-17 03:37 | -41.70788 | 174.75304 | 33079 ft | 401 kts | 221° |
| 2026-04-17 03:38 | -41.73079 | 174.73177 | 33505 ft | 400 kts | 221° |
| 2026-04-17 03:38 | -41.75365 | 174.71049 | 33762 ft | 400 kts | 221° |
| 2026-04-17 03:38 | -41.77663 | 174.68903 | 33798 ft | 405 kts | 221° |
| 2026-04-17 03:39 | -41.82306 | 174.64563 | 33792 ft | 407 kts | 221° |
| 2026-04-17 03:39 | -41.86964 | 174.60223 | 33784 ft | 407 kts | 221° |
| 2026-04-17 03:40 | -41.91621 | 174.55879 | 33771 ft | 407 kts | 221° |
| 2026-04-17 03:40 | -41.96267 | 174.51522 | 33768 ft | 407 kts | 221° |
| 2026-04-17 03:41 | -42.00910 | 174.47160 | 33767 ft | 407 kts | 221° |
| 2026-04-17 03:41 | -42.05550 | 174.42791 | 33772 ft | 407 kts | 221° |
| 2026-04-17 03:42 | -42.10186 | 174.38418 | 33765 ft | 407 kts | 221° |
| 2026-04-17 03:42 | -42.14798 | 174.34067 | 33765 ft | 407 kts | 221° |
| 2026-04-17 03:43 | -42.19438 | 174.29688 | 33759 ft | 407 kts | 221° |
| 2026-04-17 03:43 | -42.24065 | 174.25295 | 33750 ft | 407 kts | 222° |
| 2026-04-17 03:44 | -42.28697 | 174.20898 | 33744 ft | 407 kts | 222° |
| 2026-04-17 03:44 | -42.33334 | 174.16492 | 33738 ft | 408 kts | 222° |
| 2026-04-17 03:45 | -42.37984 | 174.12063 | 33725 ft | 408 kts | 222° |
| 2026-04-17 03:45 | -42.42634 | 174.07626 | 33719 ft | 409 kts | 222° |
| 2026-04-17 03:46 | -42.47283 | 174.03181 | 33716 ft | 410 kts | 222° |
| 2026-04-17 03:46 | -42.51935 | 173.98720 | 33720 ft | 410 kts | 222° |
| 2026-04-17 03:47 | -42.56572 | 173.94277 | 33714 ft | 410 kts | 222° |
| 2026-04-17 03:47 | -42.61233 | 173.89797 | 33002 ft | 413 kts | 222° |
| 2026-04-17 03:47 | -42.63599 | 173.87512 | 31873 ft | 421 kts | 221° |
| 2026-04-17 03:48 | -42.65989 | 173.85200 | 31016 ft | 422 kts | 221° |
| 2026-04-17 03:48 | -42.68380 | 173.82892 | 30401 ft | 418 kts | 221° |
| 2026-04-17 03:48 | -42.70728 | 173.80623 | 29893 ft | 412 kts | 221° |
| 2026-04-17 03:48 | -42.73051 | 173.78377 | 29311 ft | 408 kts | 221° |
| 2026-04-17 03:49 | -42.75345 | 173.76160 | 28778 ft | 402 kts | 221° |
| 2026-04-17 03:49 | -42.77602 | 173.73981 | 28258 ft | 396 kts | 221° |
| 2026-04-17 03:49 | -42.79840 | 173.71824 | 27739 ft | 391 kts | 221° |
| 2026-04-17 03:49 | -42.82049 | 173.69688 | 27224 ft | 386 kts | 221° |
| 2026-04-17 03:50 | -42.84225 | 173.67573 | 26716 ft | 382 kts | 221° |
| 2026-04-17 03:50 | -42.86376 | 173.65478 | 26218 ft | 378 kts | 221° |
| 2026-04-17 03:50 | -42.88508 | 173.63399 | 25719 ft | 375 kts | 221° |
| 2026-04-17 03:50 | -42.90604 | 173.61303 | 25232 ft | 371 kts | 224° |
| 2026-04-17 03:51 | -42.92431 | 173.58878 | 24704 ft | 365 kts | 233° |
| 2026-04-17 03:51 | -42.93952 | 173.56174 | 24210 ft | 363 kts | 237° |
| 2026-04-17 03:51 | -42.95460 | 173.53417 | 23705 ft | 362 kts | 237° |
| 2026-04-17 03:51 | -42.96972 | 173.50657 | 23201 ft | 362 kts | 237° |
| 2026-04-17 03:52 | -42.98477 | 173.47913 | 22673 ft | 361 kts | 236° |
| 2026-04-17 03:52 | -42.99983 | 173.45172 | 22210 ft | 359 kts | 236° |
| 2026-04-17 03:52 | -43.01476 | 173.42445 | 21757 ft | 356 kts | 236° |
| 2026-04-17 03:52 | -43.02952 | 173.39742 | 21307 ft | 354 kts | 236° |
| 2026-04-17 03:53 | -43.04415 | 173.37054 | 20851 ft | 351 kts | 236° |
| 2026-04-17 03:53 | -43.05865 | 173.34386 | 20408 ft | 348 kts | 236° |
| 2026-04-17 03:53 | -43.07304 | 173.31738 | 19963 ft | 346 kts | 236° |
| 2026-04-17 03:53 | -43.08732 | 173.29109 | 19508 ft | 343 kts | 236° |
| 2026-04-17 03:54 | -43.10155 | 173.26491 | 19046 ft | 341 kts | 236° |
| 2026-04-17 03:54 | -43.11569 | 173.23891 | 18570 ft | 340 kts | 236° |
| 2026-04-17 03:54 | -43.12977 | 173.21300 | 18091 ft | 339 kts | 236° |
| 2026-04-17 03:54 | -43.14366 | 173.18746 | 17569 ft | 339 kts | 236° |
| 2026-04-17 03:55 | -43.15767 | 173.16167 | 17074 ft | 337 kts | 236° |
| 2026-04-17 03:55 | -43.17160 | 173.13598 | 16578 ft | 335 kts | 236° |
| 2026-04-17 03:55 | -43.18542 | 173.11041 | 16083 ft | 333 kts | 236° |
| 2026-04-17 03:55 | -43.19918 | 173.08494 | 15589 ft | 332 kts | 236° |
| 2026-04-17 03:56 | -43.21288 | 173.05954 | 15092 ft | 331 kts | 236° |
| 2026-04-17 03:56 | -43.22659 | 173.03410 | 14588 ft | 331 kts | 236° |
| 2026-04-17 03:56 | -43.24023 | 173.00875 | 14084 ft | 330 kts | 236° |
| 2026-04-17 03:56 | -43.25359 | 172.98400 | 13590 ft | 331 kts | 234° |
| 2026-04-17 03:57 | -43.26740 | 172.96350 | 13114 ft | 333 kts | 226° |
| 2026-04-17 03:57 | -43.28430 | 172.94183 | 12582 ft | 332 kts | 226° |
| 2026-04-17 03:57 | -43.30109 | 172.92021 | 12066 ft | 330 kts | 226° |
| 2026-04-17 03:57 | -43.31779 | 172.89861 | 11548 ft | 329 kts | 227° |
| 2026-04-17 03:58 | -43.33438 | 172.87712 | 11042 ft | 327 kts | 227° |
| 2026-04-17 03:58 | -43.35087 | 172.85571 | 10581 ft | 324 kts | 228° |
| 2026-04-17 03:58 | -43.36719 | 172.83448 | 10163 ft | 321 kts | 228° |
| 2026-04-17 03:58 | -43.38310 | 172.81383 | 10041 ft | 308 kts | 229° |
| 2026-04-17 03:59 | -43.39836 | 172.79401 | 9919 ft | 296 kts | 229° |
| 2026-04-17 03:59 | -43.41306 | 172.77492 | 9786 ft | 283 kts | 229° |
| 2026-04-17 03:59 | -43.42713 | 172.75665 | 9345 ft | 277 kts | 230° |
| 2026-04-17 03:59 | -43.44097 | 172.73861 | 9189 ft | 272 kts | 230° |
| 2026-04-17 04:00 | -43.45468 | 172.72067 | 8880 ft | 273 kts | 231° |
| 2026-04-17 04:00 | -43.46831 | 172.70279 | 8444 ft | 275 kts | 231° |
| 2026-04-17 04:00 | -43.48208 | 172.68478 | 8175 ft | 271 kts | 231° |
| 2026-04-17 04:00 | -43.49591 | 172.66672 | 7748 ft | 269 kts | 231° |
| 2026-04-17 04:01 | -43.50947 | 172.64900 | 7120 ft | 268 kts | 232° |
| 2026-04-17 04:01 | -43.52278 | 172.63155 | 6535 ft | 267 kts | 232° |
| 2026-04-17 04:01 | -43.53615 | 172.61408 | 6037 ft | 264 kts | 232° |
| 2026-04-17 04:01 | -43.54959 | 172.59649 | 5528 ft | 263 kts | 232° |
| 2026-04-17 04:02 | -43.56268 | 172.57931 | 5064 ft | 265 kts | 232° |
| 2026-04-17 04:02 | -43.57618 | 172.56153 | 4583 ft | 271 kts | 231° |
| 2026-04-17 04:02 | -43.58993 | 172.54339 | 4242 ft | 272 kts | 231° |
| 2026-04-17 04:02 | -43.60341 | 172.52574 | 4137 ft | 263 kts | 231° |
| 2026-04-17 04:03 | -43.61649 | 172.50865 | 4026 ft | 255 kts | 231° |
| 2026-04-17 04:03 | -43.62864 | 172.49165 | 3915 ft | 239 kts | 243° |
| 2026-04-17 04:03 | -43.63358 | 172.47176 | 3818 ft | 208 kts | 277° |
| 2026-04-17 04:03 | -43.63017 | 172.45291 | 3363 ft | 205 kts | 303° |
| 2026-04-17 04:04 | -43.62118 | 172.43747 | 2880 ft | 208 kts | 323° |
| 2026-04-17 04:04 | -43.60880 | 172.42782 | 2648 ft | 202 kts | 342° |
| 2026-04-17 04:04 | -43.59523 | 172.42490 | 2509 ft | 195 kts | 360° |
| 2026-04-17 04:04 | -43.58172 | 172.42828 | 2081 ft | 204 kts | 18° |
| 2026-04-17 04:05 | -43.56963 | 172.43867 | 1866 ft | 203 kts | 36° |
| 2026-04-17 04:05 | -43.55897 | 172.45109 | 1709 ft | 199 kts | 35° |
| 2026-04-17 04:05 | -43.54841 | 172.46330 | 1464 ft | 196 kts | 36° |
| 2026-04-17 04:05 | -43.53827 | 172.47505 | 1216 ft | 185 kts | 36° |
| 2026-04-17 04:06 | -43.52877 | 172.48606 | 994 ft | 173 kts | 38° |
| 2026-04-17 04:06 | -43.52003 | 172.49618 | 748 ft | 155 kts | 39° |
| 2026-04-17 04:06 | -43.51212 | 172.50534 | 571 ft | 145 kts | 39° |
| 2026-04-17 04:06 | -43.50460 | 172.51404 | 370 ft | 137 kts | 37° |
| 2026-04-17 04:07 | -43.49725 | 172.52253 | 183 ft | 138 kts | 39° |
| 2026-04-17 04:07 | -43.49035 | 172.53050 | 113 ft | 112 kts | 40° |
| 2026-04-17 04:07 | -43.48579 | 172.53576 | 110 ft | 44 kts | 40° |
| 2026-04-17 04:07 | -43.48391 | 172.53797 | 106 ft | 29 kts | 39° |
| 2026-04-17 04:08 | -43.48262 | 172.53945 | 107 ft | 18 kts | 40° |
| 2026-04-17 04:08 | -43.48187 | 172.54032 | 108 ft | 13 kts | 40° |
| 2026-04-17 04:08 | -43.48103 | 172.54141 | 109 ft | 16 kts | 65° |
| 2026-04-17 04:08 | -43.48148 | 172.54218 | 111 ft | 12 kts | 156° |
| 2026-04-17 04:09 | -43.48244 | 172.54252 | 107 ft | 16 kts | 166° |
| 2026-04-17 04:09 | -43.48345 | 172.54194 | 108 ft | 17 kts | 221° |
| 2026-04-17 04:09 | -43.48442 | 172.54081 | 107 ft | 18 kts | 220° |
| 2026-04-17 04:09 | -43.48507 | 172.54076 | 107 ft | 11 kts | 134° |
| 2026-04-17 04:10 | -43.48561 | 172.54159 | 107 ft | 13 kts | 130° |
| 2026-04-17 04:10 | -43.48614 | 172.54249 | 107 ft | 7 kts | 130° |
| 2026-04-17 04:10 | -43.48647 | 172.54235 | 108 ft | 6 kts | 234° |
| 2026-04-17 04:10 | -43.48678 | 172.54194 | 109 ft | 4 kts | 224° |
| 2026-04-17 04:11 | -43.48680 | 172.54191 | 107 ft | 0 kts | 224° |
| 2026-04-17 04:11 | -43.48682 | 172.54189 | 108 ft | 0 kts | 224° |